This is the latest recevied weather packets stored in our database for station/object WX4LTG. If no packets are shown the sender has not sent any weather packets the latest 1 day(s).
| Time | Temp. | Humidity | Pressure | Rain* | Wind** | Luminosity | Snow |
|---|---|---|---|---|---|---|---|
| 1778024433 | 23.89° C | 27% | 1009.8 hPa | 0 mm | 1.79 m/s, 205° | 82 W/m² | - |
| 1778024131 | 23.89° C | 27% | 1009.7 hPa | 0 mm | 0.45 m/s, 249° | 90 W/m² | - |
| 1778023828 | 23.89° C | 27% | 1009.4 hPa | 0 mm | 0.45 m/s, 283° | 136 W/m² | - |
| 1778023526 | 23.89° C | 26% | 1009.7 hPa | 0 mm | 2.24 m/s, 218° | 111 W/m² | - |
| 1778023223 | 25° C | 26% | 1009.6 hPa | 0 mm | 1.34 m/s, 220° | 121 W/m² | - |
| 1778022920 | 25° C | 25% | 1009.6 hPa | 0 mm | 5.81 m/s, 232° | 443 W/m² | - |
| 1778022619 | 25° C | 26% | 1009.6 hPa | 0 mm | 2.24 m/s, 256° | 468 W/m² | - |
| 1778022315 | 25° C | 27% | 1009.6 hPa | 0 mm | 3.58 m/s, 246° | 470 W/m² | - |
| 1778022012 | 23.89° C | 27% | 1009.6 hPa | 0 mm | 3.58 m/s, 247° | 489 W/m² | - |
| 1778021709 | 24.44° C | 26% | 1009.5 hPa | 0 mm | 2.24 m/s, 259° | 511 W/m² | - |
| 1778021405 | 25° C | 27% | 1009.6 hPa | 0 mm | 5.36 m/s, 226° | 513 W/m² | - |
| 1778021102 | 23.89° C | 28% | 1009.7 hPa | 0 mm | 1.34 m/s, 312° | 546 W/m² | - |
| 1778020799 | 23.89° C | 28% | 1009.7 hPa | 0 mm | 3.58 m/s, 237° | 128 W/m² | - |
| 1778020496 | 24.44° C | 28% | 1009.8 hPa | 0 mm | 2.68 m/s, 226° | 136 W/m² | - |
| 1778020192 | 25° C | 27% | 1009.6 hPa | 0 mm | 4.92 m/s, 207° | 582 W/m² | - |
| 1778019889 | 23.89° C | 28% | 1009.9 hPa | 0 mm | 0.89 m/s, 252° | 625 W/m² | - |
| 1778019584 | 24.44° C | 28% | 1010.2 hPa | 0 mm | 3.58 m/s, 281° | 143 W/m² | - |
| 1778019282 | 25.56° C | 27% | 1010.2 hPa | 0 mm | 4.47 m/s, 251° | 644 W/m² | - |
| 1778018979 | 24.44° C | 28% | 1010.2 hPa | 0 mm | 1.79 m/s, 228° | 656 W/m² | - |
| 1778018676 | 23.89° C | 28% | 1010.1 hPa | 0 mm | 0 m/s | 139 W/m² | - |
| 1778018374 | 24.44° C | 28% | 1010.2 hPa | 0 mm | 3.58 m/s, 222° | 163 W/m² | - |
| 1778018072 | 25° C | 28% | 1010 hPa | 0 mm | 2.24 m/s, 247° | 684 W/m² | - |
| 1778017769 | 24.44° C | 28% | 1009.9 hPa | 0 mm | 3.58 m/s, 230° | 694 W/m² | - |
| 1778017467 | 23.89° C | 29% | 1010.3 hPa | 0 mm | 3.13 m/s, 219° | 254 W/m² | - |
| 1778017164 | 23.89° C | 29% | 1009.9 hPa | 0 mm | 2.68 m/s, 249° | 218 W/m² | - |
* Rain latest hour (hover to see other rain measurements)
** Current wind speed in m/s (hover to see current wind gust speed)